Thursday, February 22, 2018, 12:12 PM EST
Back to Local

KGFL, Floyd Bennett Memorial Airport

Location: Queensbury, NY, United States Lat: 43.333
Local Time: 12:12 PM EST (17:12 GMT) Lon: -73.617
Time Zone: US/Eastern Elev: 328 ft

Show me the last for .
Show Coded

Time T Td Feel RH Dir Speed Gust Alt SLP Vis Weather Sky Remarks
2018-02-22 11:53 33 18 30 53 10° 3 - 30.68 30.70 10 BKN047 BKN055 OVC070 None
2018-02-22 10:53 32 16 27 51 350° 5 - 30.72 30.74 10 OVC065 None
2018-02-22 09:53 32 15 26 49 40° 7 - 30.71 30.73 10 OVC080 None
2018-02-22 09:38 32 15 25 49 30° 8 - 30.69 - 10 SCT075 OVC090 None
2018-02-22 09:28 32 15 24 49 40° 10 - 30.69 - 2 HZ BKN090 OVC110 None
2018-02-22 08:53 32 15 23 49 20° 12 - 30.69 30.71 10 OVC100 None
2018-02-22 07:53 31 15 22 51 30° 12 - 30.67 30.69 10 OVC100 None
2018-02-22 06:53 31 16 21 53 40° 14 - 30.64 30.66 10 OVC110 6-hr Min Temp (7am): 30.9°F
6-hr Max Temp (7am): 39.0°F
2018-02-22 05:53 32 18 23 55 50° 13 - 30.63 30.65 10 BKN100 None
2018-02-22 04:53 33 23 26 66 60° 8 - 30.62 30.63 10 SCT110 None
2018-02-22 03:53 35 26 29 69 60° 7 - 30.61 30.62 10 FEW090 BKN110 None
2018-02-22 02:53 36 26 31 66 360° 6 - 30.58 30.59 10 OVC090 None
2018-02-22 01:53 38 25 32 59 320° 8 - 30.57 30.58 10 OVC090 None
2018-02-22 00:53 39 24 33 54 350° 9 - 30.55 30.56 10 OVC090 6-hr Min Temp (1am): 37.9°F
6-hr Max Temp (1am): 52.0°F
2018-02-21 23:53 39 25 29 56 360° 13 20 30.53 30.55 10 OVC090 24-hr Min Temp (12am): 33.1°F
24-hr Max Temp (12am): 66.0°F
2018-02-21 22:53 42 27 36 54 350° 10 - 30.49 30.50 10 OVC085 None
2018-02-21 21:53 43 33 39 67 340° 7 - 30.46 30.48 10 OVC080 None
2018-02-21 20:53 46 36 40 67 350° 13 - 30.44 30.45 10 OVC075 None
2018-02-21 19:53 49 39 43 68 340° 16 - 30.40 30.42 10 OVC070 None
2018-02-21 18:53 51 42 - 71 350° 13 - 30.36 30.38 10 OVC060 6-hr Min Temp (7pm): 51.1°F
6-hr Max Temp (7pm): 66.0°F
2018-02-21 17:53 55 44 - 66 340° 13 - 30.30 30.32 10 BKN040 BKN050 OVC080 None
2018-02-21 16:53 58 46 - 64 300° 20 24 30.24 30.25 10 SCT037 OVC070 None
2018-02-21 15:53 59 49 - 69 290° 10 - 30.18 30.19 10 OVC055 Peak wind: 29 mph (26 kts) from 290° at 08 min
2018-02-21 14:53 61 53 - 75 - - - 30.12 30.13 10 BKN048 OVC055 Pressure rising rapidly
2018-02-21 13:53 63 55 - 75 170° 5 - 30.08 30.09 10 BKN100 None
2018-02-21 12:53 62 55 - 77 200° 13 - 30.08 30.09 10 CLR 6-hr Min Temp (1pm): 33.1°F
6-hr Max Temp (1pm): 62.1°F

Support USWX by starting your Amazon purchase here.